LiveATC.Net - Listen to live air traffic control over the Internet!


ICAO: KHIO  IATA: HIO   Airport: Portland-Hillsboro Airport
City: Portland   State/Province: Oregon
Country: United States   Continent: North America
KHIO METAR Weather: KHIO 301953Z COR 18004KT 10SM BKN023 OVC033 18/11 A3004 RMK AO2 SLP169 T01780111
KHIO Flight Activity (FlightAware)
KHIO Airport Info   (AirNav) (iFlightPlanner)
KHIO VFR Sectional Chart   (iFlightPlanner) 
KHIO IFR Low Chart   (iFlightPlanner) 
KHIO Ground/Tower
Feed Status: DOWN
Last heard on: 2016-08-26 22:19:05 (3 days 22 hours 33 minutes ago)
KHIO Ground/Tower Audio Archives
FacilityFrequency
Hillsboro Ground121.700
Hillsboro Helicopter Patterns120.550
Hillsboro Tower119.300


NOTICE

Unauthorized use prohibited. See LiveATC.net Terms of Service


Find LiveATC Audio Streams


Airport/ARTCC Code

Frequency
(e.g., 124.400, 128.75)
Site-wide search

Browse LiveATC Feeds
LiveATC Coverage Map
Top 50 LiveATC Feeds
Bad Weather Areas

LiveATC FAQ
Offer a LiveATC Feed
Contact LiveATC.net
Press Inquiries

LiveATC on iPhone
LiveATC on Android

Windows Phone
Windows 8/10

LiveATC Mobile
(Mobile browser)

ATC Audio Archives
Interesting Recordings

LiveATC Forums


Home Page
About LiveATC.net
Make a Donation
LiveATC Store

Terms of Use
Privacy Policy

Canadian Air Freqs

AIRMETs/SIGMETs

FAA Airport Status
Nat'l Airspace Status
Arrival Demand Charts


Server Software By:
Icecast.org
Liquidsoap